Nefterudovoz-47m — UFFP — position and weather

sailwx.info

Track history (hours):
 
Tides and Currents Weather Stations Pressure Air Temp Water Temp Dewpoint Dewpoint Depression Visibility Wind Speed Wind Dir Waves Ship Positions

Nefterudovoz-47m

Last reported at 2017-Mar-23 12:17 UTC. Time now 2017-Mar-30 06:54 UTC.
Position N 40°44' E 029°01'.

Length 119 m; draft 2.6 m.

Type: Tanker. MMSI: 273347800.

Date/timePositionNaut miles runAvg speedWind from/ knotsBaromVisibWave heightAir tempDewpointWater temp
2017-Mar-23 12:17N 40°44' E 029°01'6 7.6
2017-Mar-23 11:31N 40°44' E 029°08'7 7.5
2017-Mar-23 10:33N 40°45' E 029°18'  
2017-Mar-16 17:26N 45°11' E 036°28'6 6.5
2017-Mar-16 16:33N 45°17' E 036°29'6 5.8
2017-Mar-16 15:33N 45°20' E 036°36'5 4.8
2017-Mar-16 14:33N 45°23' E 036°41'1 0.6
2017-Mar-16 13:33N 45°24' E 036°41'6 5.6
2017-Mar-16 12:33N 45°28' E 036°46'  
Track history (hours):
 
Tides and Currents Weather Stations Pressure Air Temp Water Temp Dewpoint Dewpoint Depression Visibility Wind Speed Wind Dir Waves Ship Positions

Nefterudovoz-47m

Last reported at 2017-Mar-23 12:17 UTC. Time now 2017-Mar-30 06:54 UTC.
Position N 40°44' E 029°01'.

Length 119 m; draft 2.6 m.

Type: Tanker. MMSI: 273347800.

Date/timePositionNaut miles runAvg speedWind from/ knotsBaromVisibWave heightAir tempDewpointWater temp
2017-Mar-23 12:17N 40°44' E 029°01'6 7.6
2017-Mar-23 11:31N 40°44' E 029°08'7 7.5
2017-Mar-23 10:33N 40°45' E 029°18'  
2017-Mar-16 17:26N 45°11' E 036°28'6 6.5
2017-Mar-16 16:33N 45°17' E 036°29'6 5.8
2017-Mar-16 15:33N 45°20' E 036°36'5 4.8
2017-Mar-16 14:33N 45°23' E 036°41'1 0.6
2017-Mar-16 13:33N 45°24' E 036°41'6 5.6
2017-Mar-16 12:33N 45°28' E 036°46'  

Dump ship's entire track history